Flight Track Log - Related Links

Times and Time Zones

All times are in EDT time to prevent confusion due to time zone crossing. See the BMA946 flight status page for this flight to view local times or setup timezone preferences in your user account.

Time Position Orientation Groundspeed Altitude Reporting Facility
EDT Latitude Longitude Course Direction KTS MPH feet Rate Location/Type
Tue 11:06:15 AM 50.0394 8.5088 301° West  Level Estimated
Tue 11:07:15 AM 50.0914 8.3714 300° West  Level Estimated
Tue 11:08:15 AM 50.1432 8.2336 300° West  Level Estimated
Tue 11:09:15 AM 50.1948 8.0956 300° West  Level Estimated
Tue 11:10:15 AM 50.2463 7.9572 300° West  Level Estimated
Tue 11:11:15 AM 50.2976 7.8186 300° West  Level Estimated
Tue 11:12:15 AM 50.3487 7.6796 300° West  Level Estimated
Tue 11:13:15 AM 50.3996 7.5404 300° West  Level Estimated
Tue 11:14:15 AM 50.4504 7.4008 300° West  Level Estimated
Tue 11:15:15 AM 50.5011 7.2610 300° West  Level Estimated
Tue 11:16:15 AM 50.5515 7.1208 299° West  Level Estimated
Tue 11:17:15 AM 50.6018 6.9804 299° West  Level Estimated
Tue 11:18:15 AM 50.6520 6.8397 299° West  Level Estimated
Tue 11:19:15 AM 50.7019 6.6986 299° West  Level Estimated
Tue 11:20:15 AM 50.7517 6.5573 299° West  Level Estimated
Tue 11:21:15 AM 50.8013 6.4156 299° West  Level Estimated
Tue 11:22:15 AM 50.8507 6.2737 299° West  Level Estimated
Tue 11:23:15 AM 50.9000 6.1314 299° West  Level Estimated
Tue 11:24:15 AM 50.9491 5.9889 299° West  Level Estimated
Tue 11:25:15 AM 50.9980 5.8460 298° West  Level Estimated
Tue 11:26:15 AM 51.0468 5.7029 298° West  Level Estimated
Tue 11:27:15 AM 51.0953 5.5594 298° West  Level Estimated
Tue 11:28:15 AM 51.1437 5.4157 298° West  Level Estimated
Tue 11:29:15 AM 51.1920 5.2716 298° West  Level Estimated
Tue 11:30:15 AM 51.2400 5.1273 298° West  Level Estimated
Tue 11:31:15 AM 51.2879 4.9826 298° West  Level Estimated
Tue 11:32:15 AM 51.3356 4.8377 298° West  Level Estimated
Tue 11:33:15 AM 51.3831 4.6924 298° West  Level Estimated
Tue 11:34:15 AM 51.4304 4.5469 297° West  Level Estimated
Tue 11:35:15 AM 51.4776 4.4010 297° West  Level Estimated
Tue 11:36:15 AM 51.5245 4.2548 297° West  Level Estimated
Tue 11:37:15 AM 51.5713 4.1084 297° West  Level Estimated
Tue 11:38:15 AM 51.6179 3.9616 297° West  Level Estimated
Tue 11:39:15 AM 51.6643 3.8146 297° West  Level Estimated
Tue 11:40:15 AM 51.7106 3.6672 297° West  Level Estimated
Tue 11:41:15 AM 51.7566 3.5195 297° West  Level Estimated
Tue 11:42:15 AM 51.8025 3.3716 297° West  Level Estimated
Tue 11:43:15 AM 51.8482 3.2233 296° West  Level Estimated
Tue 11:44:15 AM 51.8937 3.0747 296° West  Level Estimated
Tue 11:45:15 AM 51.9389 2.9258 296° West  Level Estimated
Tue 11:46:15 AM 51.9841 2.7767 296° West  Level Estimated
Tue 11:47:15 AM 52.0290 2.6272 296° West  Level Estimated
Tue 11:48:15 AM 52.0737 2.4774 296° West  Level Estimated
Tue 11:49:15 AM 52.1183 2.3274 296° West  Level Estimated
Tue 11:50:15 AM 52.1627 2.1770 296° West  Level Estimated
Tue 11:51:15 AM 52.2068 2.0263 295° West  Level Estimated
Tue 11:52:15 AM 52.2508 1.8753 295° West  Level Estimated
Tue 11:53:15 AM 52.2946 1.7241 295° West  Level Estimated
Tue 11:54:15 AM 52.3382 1.5725 295° West  Level Estimated
Tue 11:55:15 AM 52.3815 1.4207 295° West  Level Estimated
Tue 11:56:15 AM 52.4248 1.2685 295° West  Level Estimated
Tue 11:57:15 AM 52.4678 1.1160 295° West  Level Estimated
Tue 11:58:15 AM 52.5106 0.9633 295° West  Level Estimated
Tue 11:59:15 AM 52.5532 0.8102 295° West  Level Estimated
Tue 12:00:15 PM 52.5956 0.6569 294° West  Level Estimated
Tue 12:01:15 PM 52.6378 0.5032 294° West  Level Estimated
Tue 12:02:15 PM 52.6798 0.3493 294° West  Level Estimated
Tue 12:03:15 PM 52.7216 0.1950 294° West  Level Estimated
Tue 12:04:15 PM 52.7632 0.0405 294° West  Level Estimated
Tue 12:05:15 PM 52.8046 -0.1143 294° West  Level Estimated
Tue 12:06:15 PM 52.8458 -0.2695 294° West  Level Estimated
Tue 12:07:15 PM 52.8868 -0.4249 294° West  Level Estimated
Tue 12:08:15 PM 52.9276 -0.5806 293° West  Level Estimated
Tue 12:09:15 PM 52.9682 -0.7366 293° West  Level Estimated
Tue 12:10:15 PM 53.0086 -0.8929 293° West  Level Estimated
Tue 12:11:15 PM 53.0488 -1.0495 293° West  Level Estimated
Tue 12:12:15 PM 53.0888 -1.2063 293° West  Level Estimated
Tue 12:13:15 PM 53.1286 -1.3635 293° West  Level Estimated
Tue 12:14:15 PM 53.1681 -1.5210 293° West  Level Estimated
Tue 12:15:15 PM 53.2075 -1.6787 293° West  Level Estimated
Tue 12:16:15 PM 53.2467 -1.8368 292° West  Level Estimated
Tue 12:17:15 PM 53.2856 -1.9951 292° West  Level Estimated
Tue 12:18:15 PM 53.3243 -2.1537 292° West  Level Estimated
Tue 12:19:15 PM 53.3629 -2.3126 112° Southeast  Level Estimated
Tue 12:20:15 PM 53.3243 -2.1537 292° West  Level Estimated
Tue 12:21:15 PM 53.3629 -2.3126 112° Southeast  Level Estimated
Tue 12:22:15 PM 53.3243 -2.1537 292° West  Level Estimated
Tue 12:23:15 PM 53.3629 -2.3126 112° Southeast  Level Estimated
Tue 12:24:15 PM 53.3243 -2.1537 292° West  Level Estimated
Tue 12:25:15 PM 53.3629 -2.3126 112° Southeast  Level Estimated
Tue 12:26:15 PM 53.3243 -2.1537 292° West  Level Estimated
Tue 12:27:15 PM 53.3629 -2.3126 112° Southeast  Level Estimated
Tue 12:28:15 PM 53.3243 -2.1537 292° West  Level Estimated
Tue 12:29:15 PM 53.3629 -2.3126 112° Southeast  Level Estimated
Tue 12:30:15 PM 53.3243 -2.1537 292° West  Level Estimated
Tue 12:31:15 PM 53.3629 -2.3126 112° Southeast  Level Estimated
Tue 12:32:15 PM 53.3243 -2.1537 292° West  Level Estimated
Tue 12:33:15 PM 53.3629 -2.3126 292° West  Level Estimated

Login

Don't have an account? Register now (free) for customized features, flight alerts, and more!